Time;durP1;ratioP1;P1;durP2;ratioP2;P2;SDS_P1;SDS_P2;PMS_P1;PMS_P2;Temp;Humidity;BMP_temperature;BMP_pressure;BME280_temperature;BME280_humidity;BME280_pressure;Samples;Min_cycle;Max_cycle;Signal;HPM_P1;HPM_P2
2022/12/01 00:00:42;;;;;;;20.65;13.60;;;6.30;99.90;;;5.25;100.00;102143.00;4219202;28;20028;-74
2022/12/01 00:02:43;;;;;;;20.83;13.05;;;6.30;99.90;;;5.29;100.00;102147.09;4220217;28;20028;-74
2022/12/01 00:04:43;;;;;;;19.08;12.18;;;6.30;99.90;;;5.32;100.00;102146.06;4220221;28;20032;-74
2022/12/01 00:06:44;;;;;;;21.77;13.30;;;6.30;99.90;;;5.34;100.00;102145.09;4220306;28;20046;-74
2022/12/01 00:11:13;;;;;;;21.33;13.95;;;6.30;99.90;;;5.34;100.00;102139.00;4219504;28;20113;-74
2022/12/01 00:13:14;;;;;;;24.23;14.88;;;6.30;99.90;;;5.34;100.00;102132.00;4218654;28;20024;-74
2022/12/01 00:15:15;;;;;;;21.02;13.88;;;6.30;99.90;;;5.36;100.00;102135.34;4219689;28;20035;-74
2022/12/01 00:17:16;;;;;;;20.08;13.98;;;6.30;99.90;;;5.40;100.00;102134.25;4219081;28;20433;-74
2022/12/01 00:19:17;;;;;;;23.17;12.95;;;6.40;99.90;;;5.42;100.00;102129.78;4219211;28;20037;-74
2022/12/01 00:21:21;;;;;;;21.05;13.40;;;6.40;99.90;;;5.36;100.00;102132.75;4220014;28;20028;-74
2022/12/01 00:23:22;;;;;;;28.02;15.27;;;6.40;99.90;;;5.31;100.00;102134.78;4220137;28;20047;-74
2022/12/01 00:25:23;;;;;;;24.10;13.98;;;6.40;99.90;;;5.36;100.00;102137.13;4219994;28;20035;-74
2022/12/01 00:27:24;;;;;;;24.38;15.20;;;6.40;99.90;;;5.31;100.00;102145.25;4219980;28;20036;-74
2022/12/01 00:29:24;;;;;;;21.75;14.25;;;6.40;99.90;;;5.29;100.00;102125.31;4219874;28;20403;-74
2022/12/01 00:31:26;;;;;;;22.40;14.98;;;6.40;99.90;;;5.37;100.00;102137.06;4219768;28;20085;-74
2022/12/01 00:33:27;;;;;;;22.55;13.15;;;6.40;99.90;;;5.40;100.00;102134.25;4218502;28;20016;-74
2022/12/01 00:35:28;;;;;;;25.38;14.57;;;6.40;99.90;;;5.45;100.00;102134.81;4218702;28;20032;-74
2022/12/01 00:37:31;;;;;;;25.10;14.65;;;6.40;99.90;;;5.40;100.00;102134.25;4201755;28;20021;-74
2022/12/01 00:39:31;;;;;;;23.25;15.07;;;6.40;99.90;;;5.45;100.00;102134.81;4218505;28;20082;-74
2022/12/01 00:41:32;;;;;;;22.67;13.32;;;6.50;99.90;;;5.40;100.00;102133.41;4219837;28;20031;-74
2022/12/01 00:43:33;;;;;;;25.90;14.40;;;6.50;99.90;;;5.42;100.00;102136.78;4219852;28;20047;-74
2022/12/01 00:45:34;;;;;;;22.65;14.30;;;6.50;99.90;;;5.40;100.00;102134.25;4219781;28;20031;-74
2022/12/01 00:47:35;;;;;;;26.35;15.77;;;6.50;99.90;;;5.42;100.00;102137.63;4218227;28;20446;-74
2022/12/01 00:49:36;;;;;;;23.92;14.02;;;6.50;99.90;;;5.47;100.00;102132.97;4219710;28;20045;-74
2022/12/01 00:51:37;;;;;;;23.02;14.68;;;6.50;99.90;;;5.45;100.00;102136.59;4219835;28;20028;-74
2022/12/01 00:53:37;;;;;;;23.48;14.95;;;6.50;99.90;;;5.43;100.00;102134.09;4218335;28;20103;-74
2022/12/01 00:55:39;;;;;;;23.60;14.32;;;6.50;99.90;;;5.53;100.00;102129.97;4219388;28;20028;-74
2022/12/01 00:57:40;;;;;;;24.00;14.32;;;6.50;99.90;;;5.47;100.00;102132.97;4218287;28;20031;-74
2022/12/01 00:59:41;;;;;;;22.20;13.95;;;6.50;99.90;;;5.52;100.00;102148.41;4219493;28;20024;-74
2022/12/01 01:01:41;;;;;;;21.58;14.43;;;6.50;99.90;;;5.51;100.00;102147.56;4219431;28;20024;-74
2022/12/01 01:03:42;;;;;;;24.02;15.07;;;6.50;99.90;;;5.52;100.00;102153.63;4219137;28;20047;-74
2022/12/01 01:05:43;;;;;;;26.95;14.60;;;6.50;99.90;;;5.52;100.00;102149.25;4219358;28;20090;-74
2022/12/01 01:07:44;;;;;;;24.35;14.93;;;6.50;99.90;;;5.50;100.00;102155.47;4219365;28;20032;-74
2022/12/01 01:09:45;;;;;;;25.40;15.77;;;6.50;99.90;;;5.51;100.00;102158.03;4219331;28;20391;-74
2022/12/01 01:11:46;;;;;;;25.17;15.05;;;6.50;99.90;;;5.44;100.00;102146.22;4219147;28;20055;-74
2022/12/01 01:13:47;;;;;;;26.05;14.05;;;6.50;99.90;;;5.48;100.00;102152.13;4219328;28;20016;-74
2022/12/01 01:16:01;;;;;;;24.20;15.30;;;6.50;99.90;;;5.48;100.00;102160.81;4219209;28;20028;-74
2022/12/01 01:18:02;;;;;;;;;;;6.50;99.90;;;5.44;100.00;102159.31;4234540;27;20027;-74
2022/12/01 01:20:05;;;;;;;27.52;14.88;;;6.50;99.90;;;5.48;100.00;102163.44;4219071;28;20010;-74
2022/12/01 01:22:06;;;;;;;24.48;16.30;;;6.50;99.90;;;5.47;100.00;102169.59;4219039;28;20048;-74
2022/12/01 01:24:07;;;;;;;29.15;15.68;;;6.50;99.90;;;5.49;100.00;102164.28;4219093;28;20513;-74
2022/12/01 01:26:14;;;;;;;24.63;16.17;;;6.50;99.90;;;5.52;100.00;102170.19;4217251;28;20099;-74
2022/12/01 01:28:15;;;;;;;24.13;14.35;;;6.50;99.90;;;5.50;100.00;102160.72;4219129;28;20034;-74
2022/12/01 01:30:17;;;;;;;29.02;16.60;;;6.60;99.90;;;5.50;100.00;102161.56;4217981;28;20059;-74
2022/12/01 01:32:18;;;;;;;24.25;15.40;;;6.50;99.90;;;5.51;100.00;102163.25;4217565;28;20055;-74
2022/12/01 01:34:19;;;;;;;25.20;14.90;;;6.60;99.90;;;5.57;100.00;102173.38;4218935;28;20016;-74
2022/12/01 01:36:20;;;;;;;23.52;15.18;;;6.60;99.90;;;5.56;100.00;102171.69;4218768;28;20028;-74
2022/12/01 01:38:21;;;;;;;25.80;15.60;;;6.60;99.90;;;5.55;100.00;102163.94;4219061;28;20043;-73
2022/12/01 01:40:22;;;;;;;22.05;15.77;;;6.60;99.90;;;5.56;100.00;102162.97;4218881;28;20051;-74
2022/12/01 01:42:22;;;;;;;23.60;14.98;;;6.60;99.90;;;5.55;100.00;102167.38;4217622;28;20028;-74
2022/12/01 01:44:47;;;;;;;22.88;14.43;;;6.60;99.90;;;5.63;100.00;102173.94;4218699;28;20539;-73
2022/12/01 01:46:47;;;;;;;21.50;13.85;;;6.60;99.90;;;5.61;100.00;102170.59;4219036;28;20054;-74
2022/12/01 01:48:59;;;;;;;23.88;15.88;;;6.60;99.90;;;5.59;100.00;102162.81;4218521;28;20063;-74
2022/12/01 01:51:01;;;;;;;27.80;16.08;;;6.60;99.90;;;5.60;100.00;102164.50;4217680;28;20020;-74
2022/12/01 01:53:11;;;;;;;25.70;15.00;;;6.60;99.90;;;5.59;100.00;102161.03;4217814;28;20426;-74
2022/12/01 01:55:14;;;;;;;25.52;15.13;;;6.60;99.90;;;5.56;100.00;102166.44;4218727;28;20020;-74
2022/12/01 01:57:24;;;;;;;27.05;15.75;;;6.60;99.90;;;5.57;100.00;102157.66;4218762;28;20034;-74
2022/12/01 01:59:35;;;;;;;22.40;14.63;;;6.60;99.90;;;5.67;100.00;102167.59;4217548;28;20102;-74
2022/12/01 02:01:36;;;;;;;23.75;14.60;;;6.60;99.90;;;5.65;100.00;102164.22;4218723;28;20435;-74
2022/12/01 02:03:39;;;;;;;23.58;13.85;;;6.60;99.90;;;5.52;100.00;102169.34;4217110;28;20081;-74
2022/12/01 02:05:43;;;;;;;22.63;13.57;;;6.60;99.90;;;5.54;100.00;102165.69;4217609;28;20078;-74
2022/12/01 02:07:46;;;;;;;27.58;14.85;;;6.60;99.90;;;5.58;100.00;102174.22;4217408;28;20266;-74
2022/12/01 02:09:47;;;;;;;25.67;14.45;;;6.60;99.90;;;5.55;100.00;102172.59;4217670;28;20074;-74
2022/12/01 02:12:39;;;;;;;22.50;14.52;;;6.60;99.90;;;5.59;100.00;102181.97;4218392;28;20020;-74
2022/12/01 02:15:12;;;;;;;21.85;13.35;;;6.60;99.90;;;5.55;100.00;102183.06;4218513;28;20399;-74
2022/12/01 02:17:32;;;;;;;21.83;13.75;;;6.60;99.90;;;5.57;100.00;102186.47;4218527;28;20425;-73
2022/12/01 02:20:01;;;;;;;22.75;13.98;;;6.60;99.90;;;5.61;100.00;102175.81;4217463;28;20059;-74
2022/12/01 02:22:02;;;;;;;22.27;12.95;;;6.60;99.90;;;5.59;100.00;102191.59;4218688;28;20039;-74
2022/12/01 02:24:46;;;;;;;26.42;14.73;;;6.60;99.90;;;5.56;100.00;102187.38;4218681;28;20028;-74
2022/12/01 02:27:07;;;;;;;22.17;13.60;;;6.60;99.90;;;5.59;100.00;102174.13;4218834;28;20043;-74
2022/12/01 02:29:42;;;;;;;22.08;13.73;;;6.60;99.90;;;5.59;100.00;102176.75;4218546;28;20031;-74
2022/12/01 02:32:11;;;;;;;24.33;13.63;;;6.60;99.90;;;5.61;100.00;102170.59;4218578;28;20032;-74
2022/12/01 02:34:36;;;;;;;21.80;12.70;;;6.60;99.90;;;5.64;100.00;102170.41;4217032;28;20040;-74
2022/12/01 02:36:51;;;;;;;;;;;6.60;99.90;;;5.58;100.00;102169.00;4217925;28;20027;-74
2022/12/01 02:39:04;;;;;;;18.88;12.82;;;6.60;99.90;;;5.61;100.00;102170.59;4252322;27;19947;-74
2022/12/01 02:41:19;;;;;;;19.23;12.10;;;6.60;99.90;;;5.62;100.00;102169.63;4221668;28;20032;-74
2022/12/01 02:43:57;;;;;;;18.55;11.77;;;6.60;99.90;;;5.63;100.00;102163.47;4221795;28;20028;-74
2022/12/01 02:46:17;;;;;;;21.35;12.88;;;6.70;99.90;;;5.60;100.00;102161.88;4221438;28;20055;-74
2022/12/01 02:48:33;;;;;;;19.00;12.40;;;6.70;99.90;;;5.61;100.00;102160.09;4220281;28;20028;-74
2022/12/01 02:50:36;;;;;;;20.63;12.30;;;6.60;99.90;;;5.61;100.00;102157.50;4220371;28;20487;-74
2022/12/01 02:52:39;;;;;;;18.35;11.43;;;6.60;99.90;;;5.63;100.00;102160.84;4220589;28;20028;-74
2022/12/01 02:54:44;;;;;;;16.92;11.52;;;6.70;99.90;;;5.61;100.00;102160.09;4220402;28;20070;-74
2022/12/01 02:56:45;;;;;;;17.65;11.23;;;6.70;99.90;;;5.66;100.00;102163.28;4220281;28;20031;-74
2022/12/01 02:58:45;;;;;;;18.55;11.25;;;6.70;99.90;;;5.66;100.00;102168.53;4221459;28;20043;-74
2022/12/01 03:01:54;;;;;;;18.58;11.50;;;6.70;99.90;;;5.55;100.00;102143.81;4220265;28;20032;-74
2022/12/01 03:04:12;;;;;;;18.27;11.18;;;6.70;99.90;;;5.69;100.00;102153.50;4186196;28;20029;-74
2022/12/01 03:06:39;;;;;;;18.85;10.82;;;6.60;99.90;;;5.65;100.00;102140.66;4186029;28;20029;-73
2022/12/01 03:08:51;;;;;;;17.52;10.73;;;6.70;99.90;;;5.64;100.00;102139.84;4204803;28;20035;-73
2022/12/01 03:10:57;;;;;;;17.77;11.13;;;6.70;99.90;;;5.64;100.00;102142.47;4203555;28;20036;-74
2022/12/01 03:13:19;;;;;;;16.33;10.60;;;6.70;99.90;;;5.64;100.00;102141.59;4220037;28;20134;-73
2022/12/01 03:16:02;;;;;;;20.23;11.32;;;6.60;99.90;;;5.57;100.00;102139.34;4221392;28;20094;-74
2022/12/01 03:18:30;;;;;;;16.33;10.32;;;6.60;99.90;;;5.57;100.00;102146.34;4219008;28;20052;-74
2022/12/01 03:20:41;;;;;;;18.83;10.32;;;6.60;99.90;;;5.50;100.00;102135.41;4210361;28;20483;-74
2022/12/01 03:22:55;;;;;;;16.95;9.98;;;6.60;99.90;;;5.45;100.00;102132.22;4219927;28;20558;-74
2022/12/01 03:24:58;;;;;;;17.70;11.38;;;6.50;99.90;;;5.45;100.00;102134.81;4252744;27;20031;-74
2022/12/01 03:27:02;;;;;;;16.70;9.82;;;6.50;99.90;;;5.44;100.00;102130.50;4220049;28;20024;-74
2022/12/01 03:29:15;;;;;;;13.98;9.57;;;6.50;99.90;;;5.38;100.00;102127.41;4253510;27;20053;-74
2022/12/01 03:31:23;;;;;;;17.00;9.45;;;6.40;99.90;;;5.30;100.00;102130.47;4220786;28;20020;-74
2022/12/01 03:33:37;;;;;;;13.68;9.50;;;6.40;99.90;;;5.23;100.00;102131.75;4252666;27;20020;-74
2022/12/01 03:36:03;;;;;;;16.55;10.02;;;6.30;99.90;;;5.11;100.00;102132.44;4251092;27;20023;-74
2022/12/01 03:38:35;;;;;;;;;;;6.20;99.90;;;4.93;100.00;102129.09;4209435;28;20044;-74
2022/12/01 03:40:38;;;;;;;15.25;9.50;;;6.10;99.90;;;4.84;100.00;102136.59;4211108;28;19908;-74
2022/12/01 03:42:48;;;;;;;17.40;9.90;;;5.90;99.90;;;4.74;100.00;102125.00;4253315;27;20027;-73
2022/12/01 03:44:55;;;;;;;13.88;9.18;;;5.80;99.90;;;4.63;100.00;102128.19;4220660;28;20035;-74
2022/12/01 03:47:09;;;;;;;15.32;10.80;;;5.70;99.90;;;4.53;100.00;102123.56;4220514;28;20087;-74
2022/12/01 03:49:11;;;;;;;18.20;10.32;;;5.60;99.90;;;4.42;100.00;102126.75;4218886;28;20458;-73
2022/12/01 03:51:17;;;;;;;17.80;10.07;;;5.50;99.90;;;4.36;100.00;102127.91;4219236;28;20028;-73
2022/12/01 03:53:26;;;;;;;16.02;10.32;;;5.40;99.90;;;4.28;100.00;102129.25;4219486;28;20028;-74
2022/12/01 03:55:30;;;;;;;16.25;10.27;;;5.40;99.90;;;4.20;100.00;102134.91;4219474;28;20028;-74
2022/12/01 03:57:52;;;;;;;16.08;9.68;;;5.30;99.90;;;4.20;100.00;102141.88;4219390;28;20032;-73
2022/12/01 03:59:53;;;;;;;16.27;9.93;;;5.20;99.90;;;4.06;100.00;102134.75;4251646;27;20035;-74
2022/12/01 04:01:54;;;;;;;18.17;10.25;;;5.20;99.90;;;4.00;100.00;102134.25;4253091;27;20023;-74
2022/12/01 04:03:55;;;;;;;16.33;10.27;;;5.10;99.90;;;3.92;100.00;102132.03;4220247;28;20031;-74
2022/12/01 04:05:56;;;;;;;15.48;10.95;;;5.00;99.90;;;3.85;100.00;102130.69;4220340;28;20506;-74
2022/12/01 04:07:58;;;;;;;21.52;12.02;;;4.90;99.90;;;3.79;100.00;102128.38;4220543;28;20027;-74
2022/12/01 04:09:59;;;;;;;16.75;10.85;;;4.80;99.90;;;3.68;100.00;102123.69;4220298;28;20024;-74
2022/12/01 04:14:19;;;;;;;23.48;11.95;;;4.60;99.90;;;3.57;100.00;102126.00;4219343;28;20426;-74
2022/12/01 04:16:20;;;;;;;21.92;11.88;;;4.60;99.90;;;3.52;100.00;102121.97;4220192;28;20040;-74
2022/12/01 04:18:21;;;;;;;22.17;12.38;;;4.50;99.90;;;3.47;100.00;102121.31;4218940;28;20012;-74
2022/12/01 04:20:22;;;;;;;19.17;11.60;;;4.50;99.90;;;3.40;100.00;102119.97;4220209;28;20472;-74
2022/12/01 04:22:24;;;;;;;18.73;10.98;;;4.40;99.90;;;3.34;100.00;102124.53;4218914;28;20044;-74
2022/12/01 04:24:25;;;;;;;19.42;11.93;;;4.40;99.90;;;3.24;100.00;102128.53;4202023;28;20085;-74
2022/12/01 04:26:34;;;;;;;16.40;10.35;;;4.30;99.90;;;3.18;100.00;102134.06;4233361;28;20024;-74
2022/12/01 04:28:35;;;;;;;18.48;11.18;;;4.20;99.90;;;3.05;100.00;102127.72;4219135;28;20024;-73
2022/12/01 04:30:36;;;;;;;23.02;11.65;;;4.20;99.90;;;3.03;100.00;102132.19;4252505;27;20019;-73
2022/12/01 04:32:42;;;;;;;16.63;10.05;;;4.10;99.90;;;2.99;100.00;102132.38;4219152;28;20027;-73
2022/12/01 04:34:43;;;;;;;19.80;11.07;;;4.00;99.90;;;2.93;100.00;102133.53;4218579;28;20058;-73
2022/12/01 04:36:44;;;;;;;20.02;11.57;;;4.00;99.90;;;2.95;100.00;102131.72;4218946;28;20555;-74
2022/12/01 04:38:44;;;;;;;22.52;11.60;;;4.00;99.90;;;2.87;100.00;102123.41;4220012;28;20036;-73
2022/12/01 04:40:45;;;;;;;19.17;12.02;;;3.90;99.90;;;2.84;100.00;102120.94;4219753;28;20028;-73
2022/12/01 04:42:46;;;;;;;18.75;11.18;;;3.90;99.90;;;2.89;100.00;102126.81;4219652;28;20028;-74
2022/12/01 04:44:47;;;;;;;19.02;11.77;;;3.90;99.90;;;2.93;100.00;102132.72;4218734;28;20024;-74
2022/12/01 04:46:50;;;;;;;18.88;11.23;;;3.90;99.90;;;2.86;100.00;102126.94;4218508;28;20031;-74
2022/12/01 04:48:51;;;;;;;21.73;11.88;;;3.90;99.90;;;2.77;100.00;102116.97;4219725;28;20020;-73
2022/12/01 04:50:52;;;;;;;22.38;12.18;;;3.90;99.90;;;2.76;100.00;102125.69;4218488;28;20059;-73
2022/12/01 04:52:53;;;;;;;20.98;11.60;;;3.80;99.90;;;2.72;100.00;102129.34;4218530;28;20434;-73
2022/12/01 04:54:53;;;;;;;20.10;11.80;;;3.70;99.90;;;2.68;100.00;102130.41;4219529;28;20043;-74
2022/12/01 04:56:54;;;;;;;19.77;11.75;;;3.70;99.90;;;2.63;100.00;102125.41;4219488;28;20028;-74
2022/12/01 04:58:55;;;;;;;19.60;11.43;;;3.70;99.90;;;2.56;100.00;102124.03;4218167;28;20099;-73
2022/12/01 05:01:09;;;;;;;18.30;11.80;;;3.70;99.90;;;2.56;100.00;102129.22;4217669;28;20020;-74
2022/12/01 05:03:10;;;;;;;22.00;12.00;;;3.60;99.90;;;2.53;100.00;102133.72;4235269;28;20026;-74
2022/12/01 05:05:12;;;;;;;26.17;12.20;;;3.60;99.90;;;2.49;100.00;102130.41;4218230;28;20479;-74
2022/12/01 05:07:13;;;;;;;24.55;13.50;;;3.50;99.90;;;2.51;100.00;102123.38;4252392;27;20458;-73
2022/12/01 05:09:15;;;;;;;23.38;13.05;;;3.50;99.90;;;2.54;100.00;102119.81;4218196;28;20028;-73
2022/12/01 05:11:17;;;;;;;26.13;13.15;;;3.60;99.90;;;2.60;100.00;102114.28;4224571;28;20518;-73
2022/12/01 05:13:18;;;;;;;25.58;12.95;;;3.60;99.90;;;2.62;100.00;102122.88;4219215;28;20095;-73
2022/12/01 05:15:19;;;;;;;27.20;12.43;;;3.60;99.90;;;2.61;100.00;102118.59;4219362;28;20021;-73
2022/12/01 05:17:20;;;;;;;20.80;11.55;;;3.70;99.90;;;2.54;100.00;102119.81;4217862;28;20115;-74
2022/12/01 05:21:42;;;;;;;21.02;10.65;;;3.50;99.90;;;2.34;100.00;102123.31;4218829;28;20133;-74
2022/12/01 05:23:44;;;;;;;18.63;11.32;;;3.40;99.90;;;2.28;100.00;102114.91;4219284;28;20024;-74
2022/12/01 05:25:45;;;;;;;19.98;11.52;;;3.40;99.90;;;2.22;100.00;102129.06;4219281;28;20055;-74
2022/12/01 05:27:46;;;;;;;21.20;11.77;;;3.30;99.90;;;2.17;100.00;102126.69;4219069;28;20047;-74
2022/12/01 05:29:47;;;;;;;21.95;11.80;;;3.30;99.90;;;2.12;100.00;102122.59;4218900;28;20035;-74
2022/12/01 05:31:47;;;;;;;22.83;12.25;;;3.20;99.90;;;2.07;100.00;102125.38;4217770;28;20108;-74
2022/12/01 05:33:48;;;;;;;20.05;11.05;;;3.10;99.90;;;2.01;100.00;102130.00;4217933;28;20511;-74
2022/12/01 05:35:50;;;;;;;20.63;10.90;;;3.10;99.90;;;2.00;100.00;102134.38;4218906;28;20024;-74
2022/12/01 05:37:51;;;;;;;20.02;10.88;;;3.00;99.90;;;1.95;100.00;102138.94;4218741;28;20064;-73
2022/12/01 05:39:51;;;;;;;19.27;10.30;;;3.00;99.90;;;1.93;100.00;102135.56;4217855;28;20591;-74
2022/12/01 05:41:52;;;;;;;22.40;11.55;;;3.00;99.90;;;1.85;100.00;102140.22;4218932;28;20537;-73
2022/12/01 05:43:53;;;;;;;21.75;11.82;;;2.90;99.90;;;1.85;100.00;102145.44;4218938;28;20059;-74
2022/12/01 05:45:55;;;;;;;19.30;10.95;;;2.90;99.90;;;1.84;100.00;102143.78;4218805;28;20039;-74
2022/12/01 05:47:58;;;;;;;24.42;11.70;;;2.90;99.90;;;1.76;100.00;102143.25;4218807;28;20024;-74
2022/12/01 05:49:59;;;;;;;17.20;10.55;;;2.80;99.90;;;1.77;100.00;102152.72;4218841;28;20028;-73
2022/12/01 05:52:00;;;;;;;20.52;10.57;;;2.80;99.90;;;1.72;100.00;102151.25;4218749;28;20020;-73
2022/12/01 05:54:01;;;;;;;20.23;11.57;;;2.70;99.90;;;1.70;100.00;102148.72;4217575;28;20470;-73
2022/12/01 05:56:02;;;;;;;20.85;12.25;;;2.70;99.90;;;1.62;100.00;102151.63;4217388;28;20024;-74
2022/12/01 05:58:02;;;;;;;22.83;11.20;;;2.70;99.90;;;1.69;100.00;102162.63;4218910;28;20084;-74
2022/12/01 06:00:05;;;;;;;21.88;12.25;;;2.70;99.90;;;1.61;100.00;102152.53;4217489;28;20028;-74
2022/12/01 06:02:06;;;;;;;25.23;12.80;;;2.70;99.90;;;1.64;100.00;102160.19;4250810;27;20084;-73
2022/12/01 06:04:07;;;;;;;29.10;13.95;;;2.70;99.90;;;1.73;100.00;102176.34;4218814;28;20023;-73
2022/12/01 06:06:08;;;;;;;24.13;13.75;;;2.70;99.90;;;1.75;100.00;102169.31;4218555;28;20071;-73
2022/12/01 06:08:09;;;;;;;26.75;14.68;;;2.70;99.90;;;1.75;100.00;102174.53;4218622;28;20028;-73
2022/12/01 06:10:11;;;;;;;23.50;13.60;;;2.80;99.90;;;1.77;100.00;102172.69;4218340;28;20028;-74
2022/12/01 06:12:12;;;;;;;23.20;13.18;;;2.80;99.90;;;1.79;100.00;102171.75;4233971;28;20493;-73
2022/12/01 06:14:13;;;;;;;27.92;13.60;;;2.80;99.90;;;1.81;100.00;102175.13;4217229;28;20035;-73
2022/12/01 06:16:14;;;;;;;29.30;14.00;;;2.80;99.90;;;1.76;100.00;102176.22;4217234;28;20024;-74
2022/12/01 06:18:15;;;;;;;25.80;13.90;;;2.80;99.90;;;1.77;100.00;102178.75;4249912;27;20031;-74
2022/12/01 06:20:16;;;;;;;27.55;13.82;;;2.80;99.90;;;1.77;100.00;102183.94;4200523;28;20029;-74
2022/12/01 06:22:16;;;;;;;27.50;14.68;;;2.80;99.90;;;1.80;100.00;102194.22;4217035;28;20102;-74
2022/12/01 06:24:17;;;;;;;27.25;14.60;;;2.80;99.90;;;1.79;100.00;102187.34;4214530;28;20040;-73
2022/12/01 06:26:18;;;;;;;28.58;14.35;;;2.90;99.90;;;1.88;100.00;102181.72;4218183;28;20028;-73
2022/12/01 06:28:19;;;;;;;30.63;15.25;;;2.90;99.90;;;1.90;100.00;102185.13;4217265;28;20530;-73
2022/12/01 06:30:20;;;;;;;27.25;14.55;;;2.90;99.90;;;1.88;100.00;102194.75;4216601;28;20095;-73
2022/12/01 06:32:21;;;;;;;26.35;14.50;;;3.00;99.90;;;1.84;100.00;102193.19;4218153;28;20103;-74
2022/12/01 06:34:22;;;;;;;28.80;14.52;;;2.90;99.90;;;1.78;100.00;102198.66;4218255;28;20414;-73
2022/12/01 06:36:22;;;;;;;26.00;14.10;;;2.90;99.90;;;1.78;100.00;102190.84;4218610;28;20078;-73
2022/12/01 06:38:23;;;;;;;28.25;14.35;;;2.80;99.90;;;1.82;100.00;102200.22;4218364;28;20035;-74
2022/12/01 06:40:24;;;;;;;29.42;15.20;;;2.80;99.90;;;1.83;100.00;102199.31;4250912;28;20413;-74
2022/12/01 06:42:30;;;;;;;26.45;14.73;;;2.80;99.90;;;1.84;100.00;102198.41;4218424;28;20028;-74
2022/12/01 06:44:31;;;;;;;31.00;15.32;;;2.90;99.90;;;1.82;100.00;102201.97;4216878;28;20024;-73
2022/12/01 06:46:32;;;;;;;26.75;14.20;;;2.90;99.90;;;1.83;100.00;102212.31;4216852;28;20028;-74
2022/12/01 06:48:33;;;;;;;27.85;15.70;;;2.90;99.90;;;1.87;100.00;102208.69;4216756;28;20024;-73
2022/12/01 06:50:34;;;;;;;30.08;15.43;;;2.90;99.90;;;1.78;100.00;102216.88;4217095;28;20028;-73
2022/12/01 06:52:36;;;;;;;28.35;13.85;;;2.90;99.90;;;1.85;100.00;102227.88;4216420;28;20056;-74
2022/12/01 06:54:38;;;;;;;27.58;14.85;;;2.90;99.90;;;1.75;100.00;102218.75;4217040;28;20058;-73
2022/12/01 06:56:41;;;;;;;28.35;15.25;;;2.90;99.90;;;1.73;100.00;102229.22;4218214;28;20031;-73
2022/12/01 06:58:42;;;;;;;29.10;15.73;;;2.80;99.90;;;1.75;100.00;102232.59;4216992;28;20484;-73
2022/12/01 07:00:43;;;;;;;28.65;15.48;;;2.80;99.90;;;1.74;100.00;102225.69;4218159;28;20032;-73
2022/12/01 07:02:44;;;;;;;26.23;13.48;;;2.80;99.90;;;1.68;100.00;102232.00;4216827;28;20059;-73
2022/12/01 07:04:45;;;;;;;26.10;14.77;;;2.80;99.90;;;1.69;100.00;102230.25;4216931;28;20032;-73
2022/12/01 07:06:46;;;;;;;30.52;15.52;;;2.80;99.90;;;1.76;100.00;102233.47;4216775;28;20024;-73
2022/12/01 07:08:47;;;;;;;27.60;14.95;;;2.80;99.90;;;1.72;100.00;102232.72;4218002;28;20650;-73
2022/12/01 07:11:07;;;;;;;29.60;14.10;;;2.80;99.90;;;1.71;100.00;102238.84;4200079;28;20028;-74
2022/12/01 07:13:08;;;;;;;28.17;14.98;;;2.80;99.90;;;1.69;100.00;102230.25;4216922;28;20427;-73
2022/12/01 07:15:10;;;;;;;28.05;15.00;;;2.70;99.90;;;1.73;100.00;102229.22;4216841;28;20024;-73
2022/12/01 07:17:11;;;;;;;28.42;15.05;;;2.80;99.90;;;1.67;100.00;102227.69;4218034;28;20020;-74
2022/12/01 07:19:12;;;;;;;27.40;15.45;;;2.80;99.90;;;1.68;100.00;102239.81;4217124;28;20549;-74
2022/12/01 07:21:14;;;;;;;32.65;15.15;;;2.80;99.90;;;1.69;100.00;102240.66;4218027;28;20024;-73
2022/12/01 07:23:15;;;;;;;30.70;16.20;;;2.70;99.90;;;1.64;100.00;102235.63;4217772;28;20051;-74
2022/12/01 07:25:16;;;;;;;24.08;14.13;;;2.70;99.90;;;1.65;100.00;102233.88;4219388;28;20024;-73
2022/12/01 07:27:17;;;;;;;30.15;16.02;;;2.70;99.90;;;1.61;100.00;102232.34;4253676;27;20030;-73
2022/12/01 07:29:18;;;;;;;25.90;14.10;;;2.70;99.90;;;1.60;100.00;102239.28;4219802;28;20024;-74
2022/12/01 07:31:19;;;;;;;28.85;15.07;;;2.70;99.90;;;1.61;100.00;102232.34;4220817;28;20030;-74
2022/12/01 07:33:20;;;;;;;31.58;16.88;;;2.70;99.90;;;1.62;100.00;102237.47;4220759;28;20483;-73
2022/12/01 07:35:21;;;;;;;30.73;16.00;;;2.70;99.90;;;1.66;100.00;102238.19;4221078;28;20032;-73
2022/12/01 07:37:22;;;;;;;30.42;15.93;;;2.70;99.90;;;1.64;100.00;102246.03;4219649;28;20031;-73
2022/12/01 07:39:23;;;;;;;32.30;16.38;;;2.70;99.90;;;1.66;100.00;102249.44;4220750;28;20411;-73
2022/12/01 07:41:24;;;;;;;25.73;12.98;;;2.70;99.90;;;1.64;100.00;102248.63;4220888;28;20076;-74
2022/12/01 07:43:25;;;;;;;32.28;15.50;;;2.70;99.90;;;1.53;100.00;102248.22;4220943;28;20032;-73
2022/12/01 07:45:26;;;;;;;29.30;16.45;;;2.70;99.90;;;1.66;100.00;102265.03;4219475;28;20032;-74
2022/12/01 07:47:26;;;;;;;31.27;17.42;;;2.70;99.90;;;1.71;100.00;102256.19;4220377;28;20031;-73
2022/12/01 07:49:27;;;;;;;31.35;16.70;;;2.70;99.90;;;1.72;100.00;102265.69;4219413;28;20111;-74
2022/12/01 07:51:28;;;;;;;31.08;15.70;;;2.80;99.90;;;1.75;100.00;102273.38;4220568;28;20027;-73
2022/12/01 07:53:30;;;;;;;28.05;14.13;;;2.80;99.90;;;1.73;100.00;102267.41;4220568;28;20016;-73
2022/12/01 07:55:31;;;;;;;31.10;15.45;;;2.80;99.90;;;1.72;100.00;102274.34;4236059;28;20063;-74
2022/12/01 07:57:31;;;;;;;30.83;15.80;;;2.80;99.90;;;1.70;100.00;102270.97;4236130;28;20525;-74
2022/12/01 07:59:32;;;;;;;32.20;16.88;;;2.80;99.90;;;1.71;100.00;102275.25;4220518;28;20472;-74
2022/12/01 08:01:33;;;;;;;32.47;17.02;;;2.80;99.90;;;1.73;100.00;102283.84;4219044;28;20020;-74
2022/12/01 08:03:35;;;;;;;31.83;16.55;;;2.80;99.90;;;1.74;100.00;102282.94;4219183;28;20189;-74
2022/12/01 08:05:36;;;;;;;34.85;17.20;;;2.80;99.90;;;1.77;100.00;102297.56;4219120;28;20028;-74
2022/12/01 08:07:36;;;;;;;33.75;18.17;;;2.80;99.90;;;1.73;100.00;102296.88;4220036;28;20032;-73
2022/12/01 08:09:37;;;;;;;31.17;16.70;;;2.80;99.90;;;1.80;100.00;102305.25;4220293;28;20495;-74
2022/12/01 08:11:38;;;;;;;32.40;16.05;;;2.80;99.90;;;1.77;100.00;102306.22;4220197;28;20024;-73
2022/12/01 08:13:40;;;;;;;32.40;16.15;;;2.80;99.90;;;1.75;100.00;102302.00;4253034;27;20035;-73
2022/12/01 08:15:41;;;;;;;35.03;17.48;;;2.90;99.90;;;1.75;100.00;102312.38;4220408;28;20036;-73
2022/12/01 08:17:42;;;;;;;31.23;17.40;;;2.90;99.90;;;1.77;100.00;102319.22;4219127;28;20035;-74
2022/12/01 08:19:43;;;;;;;35.30;16.13;;;2.90;99.90;;;1.83;100.00;102323.31;4218885;28;20032;-73
2022/12/01 08:21:44;;;;;;;28.65;15.70;;;2.90;99.90;;;1.87;100.00;102330.97;4218926;28;20079;-73
2022/12/01 08:23:45;;;;;;;32.53;16.42;;;2.90;99.90;;;1.91;100.00;102319.50;4220120;28;20032;-73
2022/12/01 08:25:46;;;;;;;39.63;21.40;;;3.00;99.90;;;1.94;100.00;102327.19;4220010;28;20035;-73
2022/12/01 08:27:47;;;;;;;37.95;20.77;;;3.00;99.90;;;1.91;100.00;102327.31;4218631;28;20411;-73
2022/12/01 08:29:48;;;;;;;33.50;19.70;;;3.00;99.90;;;1.88;100.00;102318.81;4219877;28;20052;-73
2022/12/01 08:31:49;;;;;;;29.92;17.50;;;3.00;99.90;;;1.91;100.00;102322.09;4219876;28;20419;-74
2022/12/01 08:33:51;;;;;;;31.55;17.25;;;3.00;99.90;;;1.92;100.00;102321.22;4218938;28;20012;-74
2022/12/01 08:35:51;;;;;;;28.63;15.68;;;3.00;99.90;;;1.90;100.00;102315.22;4219660;28;20028;-74
2022/12/01 08:37:53;;;;;;;29.85;15.75;;;3.00;99.90;;;1.95;100.00;102318.47;4218537;28;20031;-73
2022/12/01 08:39:54;;;;;;;29.88;15.60;;;3.00;99.90;;;1.99;100.00;102320.06;4219024;28;20034;-73
2022/12/01 08:41:55;;;;;;;31.05;16.77;;;3.10;99.90;;;2.12;100.00;102329.03;4220002;28;20035;-74